Time;durP1;ratioP1;P1;durP2;ratioP2;P2;SDS_P1;SDS_P2;PMS_P1;PMS_P2;Temp;Humidity;BMP_temperature;BMP_pressure;BME280_temperature;BME280_humidity;BME280_pressure;Samples;Min_cycle;Max_cycle;Signal;HPM_P1;HPM_P2
2024/01/21 00:00:19;;;;;;;20.05;10.85;;;0.80;95.30;;;;;;6243427;23;20392;-76
2024/01/21 00:03:05;;;;;;;20.23;10.23;;;0.70;95.20;;;;;;6244939;23;20012;-77
2024/01/21 00:05:51;;;;;;;17.77;9.32;;;0.70;95.20;;;;;;6242635;23;20012;-77
2024/01/21 00:08:37;;;;;;;16.48;9.48;;;0.70;95.20;;;;;;6245526;23;20095;-77
2024/01/21 00:11:23;;;;;;;17.77;9.50;;;0.70;95.20;;;;;;6243677;23;20008;-76
2024/01/21 00:14:09;;;;;;;17.45;8.68;;;0.60;95.20;;;;;;6245094;23;20341;-75
2024/01/21 00:16:55;;;;;;;15.13;9.43;;;0.60;95.10;;;;;;6245506;23;20008;-75
2024/01/21 00:19:41;;;;;;;14.50;9.35;;;0.60;95.10;;;;;;6245102;23;20012;-74
2024/01/21 00:22:27;;;;;;;16.88;8.52;;;0.70;95.10;;;;;;6244946;23;20020;-75
2024/01/21 00:25:13;;;;;;;12.57;7.88;;;0.60;95.00;;;;;;6242156;23;20011;-75
2024/01/21 00:27:59;;;;;;;16.88;8.43;;;0.60;95.00;;;;;;6243281;23;20011;-74
2024/01/21 00:30:45;;;;;;;12.50;8.02;;;0.60;95.00;;;;;;6245638;23;20085;-74
2024/01/21 00:33:31;;;;;;;15.05;7.68;;;0.50;95.00;;;;;;6243496;23;20333;-74
2024/01/21 00:36:17;;;;;;;14.52;8.05;;;0.50;94.90;;;;;;6245557;23;20445;-73
2024/01/21 00:39:03;;;;;;;12.68;7.50;;;0.50;95.00;;;;;;6246129;23;20439;-74
2024/01/21 00:41:48;;;;;;;11.75;7.35;;;0.50;94.90;;;;;;6247534;23;20015;-74
2024/01/21 00:44:35;;;;;;;12.77;7.88;;;0.50;94.90;;;;;;6244276;23;20020;-74
2024/01/21 00:47:21;;;;;;;13.23;7.45;;;0.40;94.80;;;;;;6246620;23;20004;-74
2024/01/21 00:50:08;;;;;;;13.30;7.47;;;0.40;94.80;;;;;;6244660;23;20356;-74
2024/01/21 00:52:54;;;;;;;10.85;7.57;;;0.30;94.80;;;;;;6245618;23;20051;-74
2024/01/21 00:55:40;;;;;;;13.13;7.43;;;0.30;94.80;;;;;;6248224;23;20066;-74
2024/01/21 00:58:26;;;;;;;12.55;7.40;;;0.30;94.80;;;;;;6242850;23;20012;-74
2024/01/21 01:01:12;;;;;;;13.63;8.18;;;0.30;94.80;;;;;;6243220;23;20054;-74
2024/01/21 01:03:58;;;;;;;14.32;8.75;;;0.30;94.70;;;;;;6244686;23;20463;-74
2024/01/21 01:06:44;;;;;;;16.05;8.65;;;0.30;94.70;;;;;;6266121;23;20000;-75
2024/01/21 01:09:30;;;;;;;15.93;8.10;;;0.20;94.70;;;;;;6267888;23;20012;-75
2024/01/21 01:12:16;;;;;;;17.05;9.32;;;0.20;94.70;;;;;;6268995;23;20004;-75
2024/01/21 01:15:02;;;;;;;16.13;9.32;;;0.20;94.70;;;;;;6273343;22;20003;-75
2024/01/21 01:17:48;;;;;;;19.58;10.63;;;0.20;94.70;;;;;;6246239;23;20012;-75
2024/01/21 01:20:34;;;;;;;19.25;9.93;;;0.10;94.70;;;;;;6244859;23;20004;-75
2024/01/21 01:23:20;;;;;;;16.83;8.88;;;0.10;94.60;;;;;;6243697;23;20012;-77
2024/01/21 01:26:08;;;;;;;14.50;8.82;;;0.10;94.60;;;;;;6241636;23;20456;-74
2024/01/21 01:28:54;;;;;;;15.63;8.63;;;0.10;94.60;;;;;;6242832;23;20004;-74
2024/01/21 01:31:42;;;;;;;15.20;8.30;;;0.10;94.60;;;;;;6241947;23;20018;-74
2024/01/21 01:34:28;;;;;;;13.73;7.95;;;0.00;94.60;;;;;;6240626;23;20453;-74
2024/01/21 01:37:14;;;;;;;14.68;8.23;;;0.10;94.60;;;;;;6241351;23;20547;-74
2024/01/21 01:40:00;;;;;;;12.48;7.65;;;0.00;94.60;;;;;;6241679;23;20433;-75
2024/01/21 01:42:58;;;;;;;15.13;7.90;;;0.00;94.60;;;;;;6242389;23;20012;-75
2024/01/21 01:45:43;;;;;;;15.70;8.43;;;0.00;94.60;;;;;;6243731;23;20458;-75
2024/01/21 01:48:31;;;;;;;13.75;8.73;;;0.00;94.60;;;;;;6241944;23;20040;-76
2024/01/21 01:51:17;;;;;;;12.68;7.53;;;0.00;94.60;;;;;;6220166;23;20016;-75
2024/01/21 01:54:04;;;;;;;14.32;7.68;;;0.00;94.60;;;;;;6240791;23;20097;-74
2024/01/21 01:56:51;;;;;;;12.50;7.03;;;0.00;94.60;;;;;;6241923;23;20043;-75
2024/01/21 01:59:37;;;;;;;12.60;7.10;;;0.00;94.50;;;;;;6241660;23;20008;-75
2024/01/21 02:02:23;;;;;;;13.13;7.70;;;0.00;94.80;;;;;;6242794;23;20151;-75
2024/01/21 02:05:10;;;;;;;11.48;6.82;;;0.00;94.50;;;;;;6221043;23;20015;-75
2024/01/21 02:07:56;;;;;;;12.57;6.70;;;0.00;94.50;;;;;;6220855;23;20417;-74
2024/01/21 02:10:42;;;;;;;10.32;5.60;;;0.00;94.50;;;;;;6243378;23;20433;-75
2024/01/21 02:13:28;;;;;;;11.43;6.32;;;0.00;94.50;;;;;;6242968;23;20445;-75
2024/01/21 02:16:15;;;;;;;10.38;6.07;;;0.00;94.50;;;;;;6242388;23;20077;-75
2024/01/21 02:19:04;;;;;;;10.23;5.47;;;0.00;94.50;;;;;;6242062;23;20015;-74
2024/01/21 02:21:50;;;;;;;9.50;5.78;;;0.00;94.40;;;;;;6242574;23;20501;-75
2024/01/21 02:24:35;;;;;;;9.82;5.65;;;0.00;94.40;;;;;;6241852;23;20449;-74
2024/01/21 02:27:22;;;;;;;10.75;6.65;;;0.10;94.40;;;;;;6240766;23;20015;-75
2024/01/21 02:30:08;;;;;;;10.80;6.25;;;0.10;94.30;;;;;;6220805;23;20452;-75
2024/01/21 02:32:54;;;;;;;10.85;6.45;;;0.10;94.30;;;;;;6241748;23;20020;-75
2024/01/21 02:35:40;;;;;;;8.35;5.20;;;0.10;94.30;;;;;;6241516;23;20452;-75
2024/01/21 02:38:26;;;;;;;9.80;5.68;;;0.10;94.20;;;;;;6242728;23;20015;-73
2024/01/21 02:41:12;;;;;;;13.88;7.10;;;0.20;94.20;;;;;;6242778;23;20087;-73
2024/01/21 02:44:00;;;;;;;9.57;5.45;;;0.10;94.20;;;;;;6240301;23;20566;-73
2024/01/21 02:46:45;;;;;;;11.65;7.43;;;0.20;94.10;;;;;;6243075;23;20412;-73
2024/01/21 02:49:31;;;;;;;11.73;6.32;;;0.10;94.10;;;;;;6242727;23;20008;-73
2024/01/21 02:52:17;;;;;;;11.73;6.30;;;0.10;94.10;;;;;;6240396;23;20015;-73
2024/01/21 02:55:04;;;;;;;10.63;5.70;;;0.10;94.00;;;;;;6219944;23;20040;-73
2024/01/21 02:57:50;;;;;;;10.73;6.30;;;0.10;94.00;;;;;;6241926;23;20012;-73
2024/01/21 03:00:35;;;;;;;8.23;5.15;;;0.10;94.00;;;;;;6242934;23;20012;-73
2024/01/21 03:03:21;;;;;;;9.57;5.80;;;0.10;94.00;;;;;;6241960;23;20008;-73
2024/01/21 03:06:07;;;;;;;10.27;5.75;;;0.10;94.00;;;;;;6240591;23;20008;-72
2024/01/21 03:08:53;;;;;;;7.88;5.30;;;0.10;93.90;;;;;;6240192;23;20057;-73
2024/01/21 03:11:39;;;;;;;9.85;5.88;;;0.10;93.90;;;;;;6240576;23;20012;-73
2024/01/21 03:14:25;;;;;;;10.45;5.90;;;0.00;93.80;;;;;;6239867;23;20621;-72
2024/01/21 03:17:11;;;;;;;10.18;6.00;;;0.00;93.70;;;;;;6241810;23;20012;-73
2024/01/21 03:19:58;;;;;;;11.30;6.65;;;0.00;93.70;;;;;;6220035;23;20039;-73
2024/01/21 03:22:44;;;;;;;10.77;6.75;;;-0.10;93.70;;;;;;6242734;23;20004;-72
2024/01/21 03:25:30;;;;;;;10.00;6.10;;;-0.10;93.60;;;;;;6242474;23;20345;-72
2024/01/21 03:28:16;;;;;;;8.73;5.38;;;-0.10;93.60;;;;;;6241435;23;20004;-72
2024/01/21 03:31:02;;;;;;;10.23;6.10;;;-0.10;93.70;;;;;;6240280;23;20515;-72
2024/01/21 03:33:48;;;;;;;12.48;6.63;;;-0.10;93.60;;;;;;6239957;23;20448;-72
2024/01/21 03:36:34;;;;;;;9.55;6.03;;;-0.20;93.60;;;;;;6241802;23;20394;-71
2024/01/21 03:39:20;;;;;;;9.07;5.47;;;-0.20;93.60;;;;;;6242215;23;20016;-66
2024/01/21 03:42:06;;;;;;;11.30;6.32;;;-0.20;93.60;;;;;;6241017;23;20036;-68
2024/01/21 03:44:51;;;;;;;9.20;5.18;;;-0.10;93.60;;;;;;6240588;23;20441;-68
2024/01/21 03:47:38;;;;;;;10.55;6.20;;;0.00;93.60;;;;;;6240384;23;20392;-68
2024/01/21 03:50:24;;;;;;;10.82;6.13;;;-0.10;93.60;;;;;;6241143;23;20020;-67
2024/01/21 03:53:10;;;;;;;9.48;6.00;;;-0.10;93.50;;;;;;6241334;23;20020;-68
2024/01/21 03:55:55;;;;;;;9.48;5.93;;;-0.10;93.50;;;;;;6240729;23;20015;-67
2024/01/21 03:58:41;;;;;;;11.15;5.65;;;-0.10;93.50;;;;;;6240150;23;20018;-67
2024/01/21 04:01:27;;;;;;;11.40;6.60;;;-0.10;93.50;;;;;;6240415;23;20284;-67
2024/01/21 04:04:13;;;;;;;9.77;5.72;;;-0.10;93.50;;;;;;6240611;23;20035;-67
2024/01/21 04:06:59;;;;;;;11.77;5.95;;;-0.10;93.40;;;;;;6240443;23;20267;-67
2024/01/21 04:09:45;;;;;;;10.50;5.47;;;-0.10;93.40;;;;;;6239898;23;20008;-67
2024/01/21 04:12:31;;;;;;;10.60;5.85;;;-0.10;93.40;;;;;;6239467;23;20111;-68
2024/01/21 04:15:18;;;;;;;8.65;5.50;;;-0.10;93.40;;;;;;6241638;23;20012;-67
2024/01/21 04:18:04;;;;;;;13.43;6.20;;;-0.10;93.30;;;;;;6239978;23;20008;-67
2024/01/21 04:20:50;;;;;;;10.27;5.82;;;-0.10;93.30;;;;;;6239509;23;20008;-67
2024/01/21 04:23:36;;;;;;;9.63;5.60;;;-0.10;93.30;;;;;;6260867;23;20043;-67
2024/01/21 04:26:22;;;;;;;8.75;5.50;;;0.00;93.30;;;;;;6266918;23;20053;-67
2024/01/21 04:29:08;;;;;;;10.25;5.43;;;0.00;93.30;;;;;;6248854;23;20024;-68
2024/01/21 04:31:53;;;;;;;8.05;5.25;;;0.00;93.20;;;;;;6247032;23;20013;-67
2024/01/21 04:34:39;;;;;;;9.45;5.85;;;0.00;93.20;;;;;;6240552;23;20031;-68
2024/01/21 04:37:25;;;;;;;10.90;6.57;;;0.00;93.20;;;;;;6240497;23;20111;-68
2024/01/21 04:40:12;;;;;;;9.18;5.75;;;0.00;93.10;;;;;;6239803;23;20095;-68
2024/01/21 04:42:58;;;;;;;9.48;6.20;;;0.00;93.10;;;;;;6241782;23;20016;-68
2024/01/21 04:45:44;;;;;;;9.52;5.78;;;0.00;93.10;;;;;;6243426;23;20318;-68
2024/01/21 04:48:30;;;;;;;10.23;6.05;;;0.00;93.00;;;;;;6242832;23;20009;-68
2024/01/21 04:51:16;;;;;;;11.07;6.28;;;0.00;93.00;;;;;;6220752;23;20118;-68
2024/01/21 04:54:03;;;;;;;10.45;6.28;;;0.00;93.00;;;;;;6243389;23;20444;-68
2024/01/21 04:56:48;;;;;;;8.73;5.25;;;0.00;92.90;;;;;;6243516;23;20012;-68
2024/01/21 04:59:34;;;;;;;9.05;5.32;;;0.10;92.90;;;;;;6241850;23;20004;-67
2024/01/21 05:02:20;;;;;;;12.63;5.28;;;0.10;92.80;;;;;;6242067;23;20087;-67
2024/01/21 05:05:06;;;;;;;8.48;5.88;;;0.20;92.80;;;;;;6241950;23;20344;-68
2024/01/21 05:07:52;;;;;;;9.32;5.35;;;0.20;93.00;;;;;;6243700;23;20008;-67
2024/01/21 05:10:38;;;;;;;7.88;5.07;;;0.20;92.80;;;;;;6241918;23;20019;-67
2024/01/21 05:13:24;;;;;;;9.77;5.20;;;0.20;92.80;;;;;;6240989;23;20442;-67
2024/01/21 05:16:10;;;;;;;10.57;6.65;;;0.30;92.70;;;;;;6240354;23;20066;-67
2024/01/21 05:18:56;;;;;;;8.63;5.68;;;0.30;92.70;;;;;;6243774;23;20008;-68
2024/01/21 05:21:42;;;;;;;9.07;5.88;;;0.30;92.60;;;;;;6241593;23;20008;-67
2024/01/21 05:24:28;;;;;;;8.63;5.50;;;0.30;92.60;;;;;;6241251;23;20015;-67
2024/01/21 05:27:14;;;;;;;10.07;5.47;;;0.30;92.50;;;;;;6241400;23;20012;-68
2024/01/21 05:30:00;;;;;;;8.45;4.78;;;0.30;92.50;;;;;;6240920;23;20008;-68
2024/01/21 05:32:46;;;;;;;9.63;4.82;;;0.30;92.50;;;;;;6242960;23;20024;-67
2024/01/21 05:35:32;;;;;;;8.52;5.38;;;0.30;92.40;;;;;;6240720;23;20569;-68
2024/01/21 05:38:18;;;;;;;8.23;4.80;;;0.30;92.40;;;;;;6240425;23;20023;-68
2024/01/21 05:41:04;;;;;;;8.85;5.97;;;0.30;92.40;;;;;;6241003;23;20460;-68
2024/01/21 05:43:50;;;;;;;8.40;4.97;;;0.30;92.40;;;;;;6242494;23;20015;-68
2024/01/21 05:46:36;;;;;;;8.20;5.63;;;0.30;92.30;;;;;;6243248;23;20013;-68
2024/01/21 05:49:23;;;;;;;8.18;5.15;;;0.30;92.30;;;;;;6241692;23;20043;-68
2024/01/21 05:52:09;;;;;;;11.38;5.38;;;0.30;92.30;;;;;;6242009;23;20429;-68
2024/01/21 05:54:55;;;;;;;8.65;5.22;;;0.40;92.30;;;;;;6241195;23;20098;-68
2024/01/21 05:57:41;;;;;;;7.18;4.75;;;0.40;92.30;;;;;;6219247;23;20008;-67
2024/01/21 06:00:27;;;;;;;9.13;5.55;;;0.40;92.20;;;;;;6241198;23;20019;-68
2024/01/21 06:03:13;;;;;;;8.10;5.35;;;0.40;92.20;;;;;;6242943;23;20000;-67
2024/01/21 06:05:59;;;;;;;8.63;5.60;;;0.40;92.20;;;;;;6243182;23;20012;-68
2024/01/21 06:08:45;;;;;;;8.73;5.32;;;0.40;92.10;;;;;;6242930;23;20008;-68
2024/01/21 06:11:30;;;;;;;8.38;5.28;;;0.40;92.00;;;;;;6240701;23;20074;-67
2024/01/21 06:14:17;;;;;;;9.02;5.97;;;0.40;92.00;;;;;;6240601;23;20341;-67
2024/01/21 06:17:03;;;;;;;7.38;4.95;;;0.40;92.00;;;;;;6242191;23;20039;-67
2024/01/21 06:19:49;;;;;;;8.05;5.25;;;0.40;92.00;;;;;;6243092;23;20040;-67
2024/01/21 06:22:36;;;;;;;7.20;4.82;;;0.50;92.00;;;;;;6243066;23;20008;-67
2024/01/21 06:25:22;;;;;;;6.63;4.85;;;0.50;92.00;;;;;;6242606;23;20341;-67
2024/01/21 06:28:08;;;;;;;7.18;4.65;;;0.50;91.90;;;;;;6218147;23;20008;-68
2024/01/21 06:30:54;;;;;;;8.93;5.60;;;0.50;91.90;;;;;;6242836;23;20039;-67
2024/01/21 06:33:41;;;;;;;7.30;4.53;;;0.50;91.90;;;;;;6240168;23;20465;-67
2024/01/21 06:36:27;;;;;;;7.45;4.80;;;0.50;91.80;;;;;;6242643;23;20008;-67
2024/01/21 06:39:13;;;;;;;9.13;5.22;;;0.50;91.80;;;;;;6240695;23;20008;-67
2024/01/21 06:42:01;;;;;;;8.38;5.18;;;0.50;91.80;;;;;;6240670;23;20015;-67
2024/01/21 06:44:47;;;;;;;9.02;4.90;;;0.50;91.80;;;;;;6242201;23;20013;-67
2024/01/21 06:47:32;;;;;;;10.00;5.78;;;0.60;91.80;;;;;;6242516;23;20008;-68
2024/01/21 06:50:18;;;;;;;7.88;4.70;;;0.50;91.80;;;;;;6239699;23;20464;-68
2024/01/21 06:53:04;;;;;;;7.47;5.00;;;0.60;91.80;;;;;;6243006;23;20020;-64
2024/01/21 06:55:50;;;;;;;8.25;5.38;;;0.60;91.80;;;;;;6240729;23;20008;-65
2024/01/21 06:58:37;;;;;;;9.50;5.60;;;0.60;91.80;;;;;;6241048;23;20433;-62
2024/01/21 07:01:23;;;;;;;8.35;5.40;;;0.60;91.80;;;;;;6236615;23;20012;-62
2024/01/21 07:04:09;;;;;;;7.22;5.07;;;0.60;91.70;;;;;;6239525;23;20019;-62
2024/01/21 07:06:55;;;;;;;8.00;5.07;;;0.60;91.70;;;;;;6239070;23;20158;-62
2024/01/21 07:09:41;;;;;;;9.38;5.57;;;0.70;91.70;;;;;;6241699;23;20016;-62
2024/01/21 07:12:27;;;;;;;7.60;5.00;;;0.60;91.70;;;;;;6239926;23;20090;-63
2024/01/21 07:15:13;;;;;;;8.73;5.15;;;0.70;91.60;;;;;;6240537;23;20094;-63
2024/01/21 07:17:59;;;;;;;7.50;4.25;;;0.70;91.80;;;;;;6238626;23;20441;-63
2024/01/21 07:20:45;;;;;;;7.72;5.00;;;0.70;91.60;;;;;;6241717;23;20392;-62
2024/01/21 07:23:31;;;;;;;6.68;4.18;;;0.70;91.50;;;;;;6241073;23;20340;-63
2024/01/21 07:26:19;;;;;;;9.35;5.15;;;0.70;91.50;;;;;;6242225;23;20014;-63
2024/01/21 07:29:04;;;;;;;8.00;4.68;;;0.70;91.50;;;;;;6241572;23;20019;-62
2024/01/21 07:31:50;;;;;;;8.95;5.18;;;0.70;91.50;;;;;;6240170;23;20015;-63
2024/01/21 07:34:36;;;;;;;8.23;5.35;;;0.70;91.50;;;;;;6241890;23;20110;-63
2024/01/21 07:37:23;;;;;;;7.45;4.90;;;0.80;91.40;;;;;;6261711;23;19996;-64
2024/01/21 07:40:10;;;;;;;6.95;4.55;;;0.80;91.40;;;;;;6264435;23;20008;-63
2024/01/21 07:42:56;;;;;;;8.98;4.90;;;0.80;91.40;;;;;;6241155;23;20012;-63
2024/01/21 07:45:42;;;;;;;7.75;4.47;;;0.80;91.60;;;;;;6240468;23;20008;-64
2024/01/21 07:48:27;;;;;;;7.93;5.30;;;0.80;91.40;;;;;;6240341;23;20097;-64
2024/01/21 07:51:16;;;;;;;9.52;5.45;;;0.90;91.40;;;;;;6240044;23;20091;-63
2024/01/21 07:54:02;;;;;;;9.73;6.32;;;0.90;91.30;;;;;;6240708;23;20016;-63
2024/01/21 07:56:48;;;;;;;8.02;4.90;;;1.00;91.30;;;;;;6241395;23;20087;-63
2024/01/21 07:59:34;;;;;;;7.72;5.00;;;1.00;91.20;;;;;;6240618;23;20012;-63
2024/01/21 08:02:19;;;;;;;6.97;4.47;;;1.00;91.20;;;;;;6240028;23;20012;-63
2024/01/21 08:05:05;;;;;;;7.95;4.82;;;1.10;91.30;;;;;;6238853;23;20016;-63
2024/01/21 08:07:51;;;;;;;9.00;5.13;;;1.10;91.20;;;;;;6240379;23;20091;-63
2024/01/21 08:10:37;;;;;;;6.80;4.80;;;1.20;91.10;;;;;;6240523;23;20490;-63
2024/01/21 08:13:23;;;;;;;7.68;4.57;;;1.20;91.10;;;;;;6239501;23;20024;-63
2024/01/21 08:16:09;;;;;;;7.43;4.68;;;1.20;91.00;;;;;;6239625;23;20004;-63
2024/01/21 08:18:55;;;;;;;7.47;4.68;;;1.30;91.00;;;;;;6241527;23;20019;-63
2024/01/21 08:21:41;;;;;;;8.18;4.60;;;1.30;91.00;;;;;;6243080;23;20012;-62
2024/01/21 08:24:27;;;;;;;8.98;4.72;;;1.30;90.90;;;;;;6240925;23;20091;-63
2024/01/21 08:27:13;;;;;;;5.95;4.18;;;1.40;90.90;;;;;;6242080;23;20008;-63
2024/01/21 08:29:58;;;;;;;6.65;4.43;;;1.40;90.90;;;;;;6242586;23;20066;-62
2024/01/21 08:32:44;;;;;;;7.85;4.55;;;1.50;90.90;;;;;;6239503;23;20437;-63
2024/01/21 08:35:30;;;;;;;7.90;4.05;;;1.60;90.80;;;;;;6241625;23;20042;-64
2024/01/21 08:38:16;;;;;;;9.10;4.82;;;1.60;90.80;;;;;;6221960;23;20106;-63
2024/01/21 08:41:02;;;;;;;7.22;3.92;;;1.70;90.70;;;;;;6241209;23;20444;-63
2024/01/21 08:43:48;;;;;;;5.93;3.97;;;1.70;90.60;;;;;;6242066;23;20095;-62
2024/01/21 08:46:34;;;;;;;7.93;4.20;;;1.80;90.50;;;;;;6241144;23;20012;-63
2024/01/21 08:49:20;;;;;;;6.88;3.75;;;1.80;90.40;;;;;;6221170;23;20523;-62
2024/01/21 08:52:06;;;;;;;6.82;4.82;;;1.90;90.40;;;;;;6243726;23;20037;-62
2024/01/21 08:54:52;;;;;;;8.52;4.18;;;1.90;90.30;;;;;;6241087;23;20353;-63
2024/01/21 08:57:38;;;;;;;6.22;4.38;;;2.00;90.20;;;;;;6241229;23;20078;-63
2024/01/21 09:00:24;;;;;;;6.93;4.60;;;2.00;90.00;;;;;;6242253;23;20433;-63
2024/01/21 09:03:12;;;;;;;7.88;4.75;;;2.00;90.00;;;;;;6240744;23;20374;-63
2024/01/21 09:05:57;;;;;;;6.05;3.83;;;2.10;90.00;;;;;;6242380;23;20011;-64
2024/01/21 09:08:43;;;;;;;7.00;4.20;;;2.10;89.80;;;;;;6241309;23;20406;-65
2024/01/21 09:11:29;;;;;;;6.20;3.45;;;2.10;89.60;;;;;;6242782;23;20321;-64
2024/01/21 09:14:16;;;;;;;7.15;3.70;;;2.10;89.40;;;;;;6244007;23;20449;-65
2024/01/21 09:17:02;;;;;;;8.80;3.45;;;2.20;89.10;;;;;;6242608;23;20039;-65
2024/01/21 09:19:48;;;;;;;6.15;3.58;;;2.30;88.90;;;;;;6240446;23;20016;-65
2024/01/21 09:22:34;;;;;;;4.93;3.65;;;2.30;89.10;;;;;;6243099;23;20060;-65
2024/01/21 09:25:20;;;;;;;5.82;3.75;;;2.40;88.50;;;;;;6241011;23;20020;-65
2024/01/21 09:28:07;;;;;;;8.27;3.78;;;2.40;88.30;;;;;;6241099;23;20009;-66
2024/01/21 09:30:53;;;;;;;6.05;3.38;;;2.40;87.90;;;;;;6240945;23;20459;-65
2024/01/21 09:33:39;;;;;;;7.93;3.50;;;2.50;87.90;;;;;;6240156;23;20403;-65
2024/01/21 09:36:25;;;;;;;6.72;2.85;;;2.50;87.80;;;;;;6243416;23;20437;-65
2024/01/21 09:39:10;;;;;;;8.60;5.25;;;2.60;87.60;;;;;;6240940;23;20040;-65
2024/01/21 09:41:58;;;;;;;9.45;5.30;;;2.60;87.60;;;;;;6241084;23;20040;-65
2024/01/21 09:44:45;;;;;;;6.88;4.90;;;2.70;88.00;;;;;;6241971;23;20503;-65
2024/01/21 09:47:33;;;;;;;5.55;4.20;;;2.70;88.80;;;;;;6243383;23;20047;-65
2024/01/21 09:50:21;;;;;;;8.80;4.07;;;2.80;88.40;;;;;;6240615;23;20042;-67
2024/01/21 09:53:07;;;;;;;5.80;4.07;;;2.90;87.90;;;;;;6242051;23;20097;-68
2024/01/21 09:55:58;;;;;;;5.07;3.40;;;2.90;87.80;;;;;;6240513;23;20004;-68
2024/01/21 09:58:47;;;;;;;6.03;3.92;;;3.00;87.40;;;;;;6243376;23;20440;-68
2024/01/21 10:01:34;;;;;;;5.78;3.33;;;3.00;87.20;;;;;;6241010;23;20008;-68
2024/01/21 10:04:20;;;;;;;9.40;3.80;;;3.10;87.50;;;;;;6242147;23;20023;-68
2024/01/21 10:07:08;;;;;;;9.88;3.88;;;3.10;87.30;;;;;;6241594;23;20008;-68
2024/01/21 10:09:57;;;;;;;6.85;3.60;;;3.20;87.30;;;;;;6241505;23;20027;-68
2024/01/21 10:12:44;;;;;;;5.43;3.60;;;3.20;86.90;;;;;;6242923;23;20027;-68
2024/01/21 10:15:30;;;;;;;4.85;3.22;;;3.30;86.70;;;;;;6241215;23;20008;-68
2024/01/21 10:18:16;;;;;;;6.22;3.28;;;3.30;86.20;;;;;;6239277;23;20009;-68
2024/01/21 10:21:05;;;;;;;4.55;2.85;;;3.20;85.90;;;;;;6241889;23;20073;-68
2024/01/21 10:23:51;;;;;;;5.10;3.08;;;3.30;85.60;;;;;;6242826;23;20484;-68
2024/01/21 10:26:41;;;;;;;4.47;3.00;;;3.30;85.60;;;;;;6241234;23;20011;-68
2024/01/21 10:29:26;;;;;;;5.40;2.85;;;3.40;85.40;;;;;;6242969;23;20437;-69
2024/01/21 10:32:14;;;;;;;5.45;3.47;;;3.40;85.10;;;;;;6241589;23;20453;-69
2024/01/21 10:35:00;;;;;;;6.28;3.45;;;3.50;85.40;;;;;;6239494;23;20020;-68
2024/01/21 10:37:47;;;;;;;3.72;2.60;;;3.50;84.60;;;;;;6240348;23;20009;-68
2024/01/21 10:40:32;;;;;;;6.20;3.90;;;3.50;84.50;;;;;;6243341;23;20004;-71
2024/01/21 10:43:19;;;;;;;7.43;3.58;;;3.60;84.20;;;;;;6241990;23;20008;-71
2024/01/21 10:46:07;;;;;;;4.75;3.05;;;3.60;83.80;;;;;;6243304;23;20008;-71
2024/01/21 10:48:57;;;;;;;8.45;3.22;;;3.60;83.60;;;;;;6260030;23;20082;-71
2024/01/21 10:51:44;;;;;;;9.20;4.07;;;3.60;83.20;;;;;;6267510;23;19999;-71
2024/01/21 10:54:30;;;;;;;9.13;3.13;;;3.70;83.30;;;;;;6255493;23;20433;-71
2024/01/21 10:57:17;;;;;;;5.05;3.15;;;3.80;83.00;;;;;;6264657;23;20039;-71
2024/01/21 11:00:05;;;;;;;6.13;3.42;;;3.80;82.70;;;;;;6242019;23;20345;-71
2024/01/21 11:03:25;;;;;;;7.97;3.75;;;3.80;82.40;;;;;;6241271;23;20008;-71
2024/01/21 11:06:11;;;;;;;6.97;3.30;;;3.90;82.20;;;;;;6241846;23;20008;-71
2024/01/21 11:09:00;;;;;;;5.32;3.28;;;3.90;82.10;;;;;;6243080;23;20012;-71
2024/01/21 11:11:51;;;;;;;5.05;3.00;;;3.80;81.80;;;;;;6242591;23;20437;-71
2024/01/21 11:14:39;;;;;;;5.40;3.00;;;3.80;81.70;;;;;;6241095;23;20074;-71
2024/01/21 11:17:26;;;;;;;6.72;3.70;;;3.90;81.70;;;;;;6241242;23;20012;-71
2024/01/21 11:20:24;;;;;;;5.35;3.47;;;3.90;81.80;;;;;;6241685;23;20004;-71
2024/01/21 11:23:16;;;;;;;7.22;5.35;;;4.00;81.40;;;;;;6240812;23;20008;-71
2024/01/21 11:26:04;;;;;;;11.52;9.77;;;4.00;81.20;;;;;;6240221;23;20016;-71
2024/01/21 11:28:50;;;;;;;12.73;9.93;;;4.00;81.00;;;;;;6240741;23;20012;-71
2024/01/21 11:31:36;;;;;;;11.32;8.77;;;4.00;80.90;;;;;;6240443;23;20016;-71
2024/01/21 11:34:22;;;;;;;6.90;5.25;;;4.10;81.00;;;;;;6239955;23;20024;-71
2024/01/21 11:37:15;;;;;;;5.65;4.30;;;4.10;80.80;;;;;;6241591;23;20078;-71
2024/01/21 11:40:02;;;;;;;5.40;4.15;;;4.20;80.80;;;;;;6241366;23;20046;-71
2024/01/21 11:42:50;;;;;;;7.10;4.03;;;4.30;80.80;;;;;;6241566;23;20008;-71
2024/01/21 11:45:38;;;;;;;5.28;3.53;;;4.40;80.70;;;;;;6242198;23;20062;-71
2024/01/21 11:48:31;;;;;;;7.18;3.38;;;4.40;80.30;;;;;;6242120;23;20005;-70
2024/01/21 11:51:17;;;;;;;5.20;3.40;;;4.40;80.00;;;;;;6240399;23;20062;-71
2024/01/21 11:54:03;;;;;;;5.32;3.42;;;4.50;79.90;;;;;;6240603;23;20020;-70
2024/01/21 11:56:50;;;;;;;7.78;3.75;;;4.50;79.50;;;;;;6240936;23;20329;-70
2024/01/21 11:59:36;;;;;;;7.53;3.72;;;4.50;79.30;;;;;;6241233;23;20306;-71
2024/01/21 12:02:24;;;;;;;9.45;3.83;;;4.60;79.10;;;;;;6239966;23;20016;-70
2024/01/21 12:05:10;;;;;;;5.70;2.65;;;4.60;78.70;;;;;;6240240;23;20091;-70
2024/01/21 12:07:56;;;;;;;5.20;3.15;;;4.70;78.60;;;;;;6239544;23;20427;-71
2024/01/21 12:10:43;;;;;;;4.85;3.03;;;4.70;78.50;;;;;;6241573;23;20050;-70
2024/01/21 12:13:30;;;;;;;5.13;2.83;;;4.70;78.20;;;;;;6240607;23;20035;-70
2024/01/21 12:16:17;;;;;;;7.15;3.33;;;4.80;78.00;;;;;;6240832;23;20032;-70
2024/01/21 12:19:04;;;;;;;7.20;3.33;;;4.80;77.70;;;;;;6238989;23;20425;-70
2024/01/21 12:21:51;;;;;;;5.90;3.10;;;4.80;77.80;;;;;;6243950;23;20008;-70
2024/01/21 12:24:40;;;;;;;6.30;3.13;;;4.90;77.70;;;;;;6243048;23;20079;-70
2024/01/21 12:27:26;;;;;;;5.25;3.20;;;4.90;77.30;;;;;;6240734;23;20011;-70
2024/01/21 12:30:13;;;;;;;5.78;3.20;;;4.90;77.30;;;;;;6239139;23;20015;-70
2024/01/21 12:32:59;;;;;;;6.05;3.22;;;4.90;77.30;;;;;;6240511;23;20020;-70
2024/01/21 12:35:47;;;;;;;5.18;3.00;;;4.90;77.00;;;;;;6240494;23;20009;-70
2024/01/21 12:38:32;;;;;;;4.40;3.00;;;4.90;77.10;;;;;;6241262;23;20415;-70
2024/01/21 12:41:20;;;;;;;6.03;2.92;;;4.90;76.90;;;;;;6219092;23;20008;-70
2024/01/21 12:44:06;;;;;;;5.18;2.75;;;4.90;76.60;;;;;;6241475;23;20445;-71
2024/01/21 12:46:52;;;;;;;4.40;2.60;;;4.90;76.60;;;;;;6239748;23;20004;-71
2024/01/21 12:49:38;;;;;;;5.97;3.25;;;4.90;76.60;;;;;;6240827;23;20110;-71
2024/01/21 12:52:24;;;;;;;5.63;3.40;;;4.90;76.50;;;;;;6238927;23;20011;-71
2024/01/21 12:55:10;;;;;;;6.15;3.00;;;5.00;76.40;;;;;;6241850;23;20415;-70
2024/01/21 12:57:56;;;;;;;4.55;2.80;;;5.00;76.20;;;;;;6239767;23;20019;-71
2024/01/21 13:00:42;;;;;;;5.45;3.97;;;5.00;76.40;;;;;;6239752;23;20456;-69
2024/01/21 13:03:28;;;;;;;7.53;3.17;;;5.10;76.30;;;;;;6240826;23;20048;-70
2024/01/21 13:06:14;;;;;;;6.22;3.08;;;5.10;76.10;;;;;;6241106;23;20439;-70
2024/01/21 13:09:00;;;;;;;5.63;3.30;;;5.20;76.20;;;;;;6240535;23;20345;-70
2024/01/21 13:11:46;;;;;;;6.60;3.63;;;5.20;76.10;;;;;;6241669;23;20012;-70
2024/01/21 13:14:33;;;;;;;5.28;3.00;;;5.20;76.10;;;;;;6241498;23;20119;-70
2024/01/21 13:17:18;;;;;;;6.90;3.03;;;5.20;75.80;;;;;;6243989;23;20008;-70
2024/01/21 13:20:06;;;;;;;6.00;3.42;;;5.30;75.50;;;;;;6241695;23;20004;-70
2024/01/21 13:22:52;;;;;;;6.75;2.95;;;5.20;75.20;;;;;;6241035;23;20008;-70
2024/01/21 13:25:38;;;;;;;4.88;2.70;;;5.20;75.00;;;;;;6240346;23;20012;-70
2024/01/21 13:31:10;;;;;;;8.40;4.20;;;5.30;74.70;;;;;;6242278;23;20012;-70
2024/01/21 13:33:57;;;;;;;5.38;3.10;;;5.30;74.60;;;;;;6240578;23;20101;-70
2024/01/21 13:36:43;;;;;;;4.32;2.35;;;5.40;74.40;;;;;;6241319;23;20016;-70
2024/01/21 13:39:28;;;;;;;3.63;2.55;;;5.50;74.30;;;;;;6241967;23;20016;-70
2024/01/21 13:42:14;;;;;;;5.28;2.90;;;5.50;74.10;;;;;;6241723;23;20014;-70
2024/01/21 13:45:00;;;;;;;4.75;2.92;;;5.50;73.80;;;;;;6240724;23;20007;-70
2024/01/21 13:47:46;;;;;;;3.42;2.30;;;5.50;73.60;;;;;;6243624;23;20311;-70
2024/01/21 13:50:33;;;;;;;4.97;3.03;;;5.50;73.50;;;;;;6243060;23;20008;-70
2024/01/21 13:53:19;;;;;;;5.15;2.55;;;5.60;73.50;;;;;;6242228;23;20118;-70
2024/01/21 13:56:05;;;;;;;5.40;2.95;;;5.60;73.50;;;;;;6239824;23;20445;-70
2024/01/21 13:58:51;;;;;;;6.63;2.95;;;5.60;73.20;;;;;;6221185;23;20016;-70
2024/01/21 14:01:37;;;;;;;6.32;3.08;;;5.60;73.00;;;;;;6240666;23;20038;-70
2024/01/21 14:04:23;;;;;;;4.50;2.55;;;5.70;72.90;;;;;;6257091;23;20019;-70
2024/01/21 14:07:09;;;;;;;4.80;2.67;;;5.60;72.60;;;;;;6270223;23;19988;-70
2024/01/21 14:09:56;;;;;;;4.90;2.65;;;5.60;72.40;;;;;;6260682;22;20018;-70
2024/01/21 14:12:42;;;;;;;5.88;3.00;;;5.60;72.80;;;;;;6256215;23;20050;-70
2024/01/21 14:15:28;;;;;;;3.80;2.35;;;5.60;72.00;;;;;;6256198;23;20012;-70
2024/01/21 14:18:14;;;;;;;4.20;2.20;;;5.60;72.10;;;;;;6242049;23;20457;-69
2024/01/21 14:21:00;;;;;;;3.63;2.40;;;5.60;71.90;;;;;;6243380;23;20341;-69
2024/01/21 14:23:47;;;;;;;6.18;2.80;;;5.60;71.80;;;;;;6221258;23;20024;-69
2024/01/21 14:26:46;;;;;;;4.32;2.33;;;5.60;71.90;;;;;;6240380;23;20118;-70
2024/01/21 14:29:36;;;;;;;5.43;3.10;;;5.60;71.70;;;;;;6241370;23;20031;-70
2024/01/21 14:32:22;;;;;;;5.10;2.10;;;5.60;71.80;;;;;;6241713;23;20118;-70
2024/01/21 14:35:08;;;;;;;5.10;2.53;;;5.60;72.00;;;;;;6240246;23;20081;-70